sensor_id;sensor_type;location;lat;lon;timestamp;pressure;altitude;pressure_sealevel;temperature;humidity
40502;BME280;29631;49.168;9.848;2023-02-08T00:00:21;98574.16;;;4.54;68.05
40502;BME280;29631;49.168;9.848;2023-02-08T00:02:48;98590.34;;;4.59;67.60
40502;BME280;29631;49.168;9.848;2023-02-08T00:05:14;98567.31;;;4.53;67.85
40502;BME280;29631;49.168;9.848;2023-02-08T00:07:40;98594.34;;;4.63;68.02
40502;BME280;29631;49.168;9.848;2023-02-08T00:10:06;98584.13;;;4.60;67.93
40502;BME280;29631;49.168;9.848;2023-02-08T00:12:33;98578.00;;;4.50;68.30
40502;BME280;29631;49.168;9.848;2023-02-08T00:14:59;98595.78;;;4.56;67.51
40502;BME280;29631;49.168;9.848;2023-02-08T00:17:25;98578.69;;;4.41;67.58
40502;BME280;29631;49.168;9.848;2023-02-08T00:19:51;98583.69;;;4.44;68.28
40502;BME280;29631;49.168;9.848;2023-02-08T00:22:17;98578.00;;;4.39;68.10
40502;BME280;29631;49.168;9.848;2023-02-08T00:24:43;98577.28;;;4.37;68.29
40502;BME280;29631;49.168;9.848;2023-02-08T00:27:09;98559.25;;;4.24;67.49
40502;BME280;29631;49.168;9.848;2023-02-08T00:29:34;98571.59;;;4.32;67.63
40502;BME280;29631;49.168;9.848;2023-02-08T00:32:00;98568.53;;;4.28;67.86
40502;BME280;29631;49.168;9.848;2023-02-08T00:34:26;98581.91;;;4.34;68.02
40502;BME280;29631;49.168;9.848;2023-02-08T00:36:52;98575.50;;;4.27;68.32
40502;BME280;29631;49.168;9.848;2023-02-08T00:39:17;98588.69;;;4.26;67.50
40502;BME280;29631;49.168;9.848;2023-02-08T00:41:46;98560.47;;;4.09;68.29
40502;BME280;29631;49.168;9.848;2023-02-08T00:44:11;98578.94;;;4.17;67.73
40502;BME280;29631;49.168;9.848;2023-02-08T00:46:37;98597.69;;;4.22;68.40
40502;BME280;29631;49.168;9.848;2023-02-08T00:49:03;98587.50;;;4.19;68.71
40502;BME280;29631;49.168;9.848;2023-02-08T00:51:29;98570.91;;;4.09;67.78
40502;BME280;29631;49.168;9.848;2023-02-08T00:53:55;98555.94;;;4.00;68.15
40502;BME280;29631;49.168;9.848;2023-02-08T00:56:20;98597.69;;;4.22;67.78
40502;BME280;29631;49.168;9.848;2023-02-08T00:58:46;98602.66;;;4.25;69.00
40502;BME280;29631;49.168;9.848;2023-02-08T01:01:12;98575.84;;;4.12;67.85
40502;BME280;29631;49.168;9.848;2023-02-08T01:03:40;98588.69;;;4.15;67.85
40502;BME280;29631;49.168;9.848;2023-02-08T01:06:10;98597.69;;;4.22;68.42
40502;BME280;29631;49.168;9.848;2023-02-08T01:08:37;98580.13;;;4.13;68.74
40502;BME280;29631;49.168;9.848;2023-02-08T01:11:16;98584.50;;;4.12;68.71
40502;BME280;29631;49.168;9.848;2023-02-08T01:13:43;98576.00;;;4.10;68.92
40502;BME280;29631;49.168;9.848;2023-02-08T01:16:17;98570.03;;;4.08;68.67
40502;BME280;29631;49.168;9.848;2023-02-08T01:18:45;98568.97;;;4.11;67.80
40502;BME280;29631;49.168;9.848;2023-02-08T01:21:15;98569.56;;;4.14;68.37
40502;BME280;29631;49.168;9.848;2023-02-08T01:23:42;98561.88;;;4.13;68.49
40502;BME280;29631;49.168;9.848;2023-02-08T01:26:10;98570.50;;;4.13;68.22
40502;BME280;29631;49.168;9.848;2023-02-08T01:28:36;98567.69;;;4.16;68.13
40502;BME280;29631;49.168;9.848;2023-02-08T01:31:20;98568.75;;;4.14;68.93
40502;BME280;29631;49.168;9.848;2023-02-08T01:33:47;98581.31;;;4.20;67.86
40502;BME280;29631;49.168;9.848;2023-02-08T01:36:13;98572.06;;;4.16;67.95
40502;BME280;29631;49.168;9.848;2023-02-08T01:38:39;98581.78;;;4.25;69.02
40502;BME280;29631;49.168;9.848;2023-02-08T01:41:08;98559.97;;;4.15;68.71
40502;BME280;29631;49.168;9.848;2023-02-08T01:44:00;98575.97;;;4.21;68.46
40502;BME280;29631;49.168;9.848;2023-02-08T01:46:28;98541.94;;;4.01;68.19
40502;BME280;29631;49.168;9.848;2023-02-08T01:48:58;98561.28;;;4.09;68.28
40502;BME280;29631;49.168;9.848;2023-02-08T01:51:32;98558.78;;;4.08;68.58
40502;BME280;29631;49.168;9.848;2023-02-08T01:54:00;98554.66;;;4.05;68.00
40502;BME280;29631;49.168;9.848;2023-02-08T01:56:34;98546.56;;;4.08;68.93
40502;BME280;29631;49.168;9.848;2023-02-08T01:59:04;98559.00;;;4.16;68.35
40502;BME280;29631;49.168;9.848;2023-02-08T02:01:31;98512.06;;;3.83;68.94
40502;BME280;29631;49.168;9.848;2023-02-08T02:04:01;98544.44;;;4.02;67.81
40502;BME280;29631;49.168;9.848;2023-02-08T02:06:33;98546.91;;;4.04;68.91
40502;BME280;29631;49.168;9.848;2023-02-08T02:09:30;98531.03;;;3.96;69.19
40502;BME280;29631;49.168;9.848;2023-02-08T02:11:58;98555.47;;;4.06;68.49
40502;BME280;29631;49.168;9.848;2023-02-08T02:14:25;98545.25;;;4.03;68.27
40502;BME280;29631;49.168;9.848;2023-02-08T02:16:51;98511.91;;;3.73;68.46
40502;BME280;29631;49.168;9.848;2023-02-08T02:29:26;98555.81;;;3.90;68.30
40502;BME280;29631;49.168;9.848;2023-02-08T02:32:35;98540.25;;;3.78;68.36
40502;BME280;29631;49.168;9.848;2023-02-08T02:35:31;98557.81;;;3.87;67.68
40502;BME280;29631;49.168;9.848;2023-02-08T02:39:04;98558.75;;;3.86;67.99
40502;BME280;29631;49.168;9.848;2023-02-08T02:41:29;98558.75;;;3.86;68.95
40502;BME280;29631;49.168;9.848;2023-02-08T02:44:36;98536.69;;;3.79;68.21
40502;BME280;29631;49.168;9.848;2023-02-08T02:49:55;98530.66;;;3.78;68.47
40502;BME280;29631;49.168;9.848;2023-02-08T02:52:45;98509.09;;;3.65;68.37
40502;BME280;29631;49.168;9.848;2023-02-08T02:55:16;98504.81;;;3.64;68.79
40502;BME280;29631;49.168;9.848;2023-02-08T02:57:46;98541.22;;;3.88;67.56
40502;BME280;29631;49.168;9.848;2023-02-08T03:00:23;98531.03;;;3.85;68.19
40502;BME280;29631;49.168;9.848;2023-02-08T03:02:49;98521.31;;;3.76;67.94
40502;BME280;29631;49.168;9.848;2023-02-08T03:05:16;98503.75;;;3.67;67.76
40502;BME280;29631;49.168;9.848;2023-02-08T03:08:11;98535.41;;;3.84;68.32
40502;BME280;29631;49.168;9.848;2023-02-08T03:10:49;98547.03;;;3.91;67.49
40502;BME280;29631;49.168;9.848;2023-02-08T03:13:35;98516.44;;;3.71;68.20
40502;BME280;29631;49.168;9.848;2023-02-08T03:16:24;98541.44;;;3.85;68.88
40502;BME280;29631;49.168;9.848;2023-02-08T03:19:30;98541.91;;;3.79;68.44
40502;BME280;29631;49.168;9.848;2023-02-08T03:24:53;98546.19;;;3.80;68.85
40502;BME280;29631;49.168;9.848;2023-02-08T03:30:33;98525.53;;;3.66;67.95
40502;BME280;29631;49.168;9.848;2023-02-08T03:33:09;98495.53;;;3.39;67.82
40502;BME280;29631;49.168;9.848;2023-02-08T03:35:41;98494.34;;;3.43;68.33
40502;BME280;29631;49.168;9.848;2023-02-08T03:38:12;98528.03;;;3.67;68.28
40502;BME280;29631;49.168;9.848;2023-02-08T03:40:44;98543.59;;;3.69;68.58
40502;BME280;29631;49.168;9.848;2023-02-08T03:43:23;98517.38;;;3.59;68.36
40502;BME280;29631;49.168;9.848;2023-02-08T03:48:33;98542.03;;;3.66;68.35
40502;BME280;29631;49.168;9.848;2023-02-08T03:51:02;98546.41;;;3.66;68.09
40502;BME280;29631;49.168;9.848;2023-02-08T03:53:30;98538.72;;;3.64;67.63
40502;BME280;29631;49.168;9.848;2023-02-08T03:56:19;98549.72;;;3.68;68.51
40502;BME280;29631;49.168;9.848;2023-02-08T03:59:16;98547.34;;;3.65;68.73
40502;BME280;29631;49.168;9.848;2023-02-08T04:01:47;98544.53;;;3.68;68.81
40502;BME280;29631;49.168;9.848;2023-02-08T04:04:15;98553.75;;;3.72;68.23
40502;BME280;29631;49.168;9.848;2023-02-08T04:06:43;98542.84;;;3.67;68.40
40502;BME280;29631;49.168;9.848;2023-02-08T04:09:09;98529.69;;;3.68;67.83
40502;BME280;29631;49.168;9.848;2023-02-08T04:11:35;98539.53;;;3.65;67.99
40502;BME280;29631;49.168;9.848;2023-02-08T04:14:00;98538.84;;;3.74;67.89
40502;BME280;29631;49.168;9.848;2023-02-08T04:16:26;98524.72;;;3.65;67.80
40502;BME280;29631;49.168;9.848;2023-02-08T04:18:52;98528.03;;;3.67;68.26
40502;BME280;29631;49.168;9.848;2023-02-08T04:21:17;98530.75;;;3.66;68.20
40502;BME280;29631;49.168;9.848;2023-02-08T04:23:43;98527.09;;;3.68;67.95
40502;BME280;29631;49.168;9.848;2023-02-08T04:26:09;98539.66;;;3.74;67.87
40502;BME280;29631;49.168;9.848;2023-02-08T04:28:35;98544.06;;;3.74;67.78
40502;BME280;29631;49.168;9.848;2023-02-08T04:31:00;98528.41;;;3.74;68.30
40502;BME280;29631;49.168;9.848;2023-02-08T04:33:26;98517.59;;;3.67;68.34
40502;BME280;29631;49.168;9.848;2023-02-08T04:35:52;98521.78;;;3.70;68.59
40502;BME280;29631;49.168;9.848;2023-02-08T04:38:18;98527.00;;;3.70;68.12
40502;BME280;29631;49.168;9.848;2023-02-08T04:40:43;98533.63;;;3.74;67.82
40502;BME280;29631;49.168;9.848;2023-02-08T04:43:09;98527.81;;;3.70;68.56
40502;BME280;29631;49.168;9.848;2023-02-08T04:45:35;98515.47;;;3.61;68.36
40502;BME280;29631;49.168;9.848;2023-02-08T04:48:01;98518.31;;;3.58;68.41
40502;BME280;29631;49.168;9.848;2023-02-08T04:50:27;98537.63;;;3.67;67.37
40502;BME280;29631;49.168;9.848;2023-02-08T04:52:52;98536.22;;;3.63;68.46
40502;BME280;29631;49.168;9.848;2023-02-08T04:55:18;98545.47;;;3.67;67.66
40502;BME280;29631;49.168;9.848;2023-02-08T04:57:44;98539.78;;;3.62;67.71
40502;BME280;29631;49.168;9.848;2023-02-08T05:00:10;98505.25;;;3.48;67.48
40502;BME280;29631;49.168;9.848;2023-02-08T05:02:37;98516.19;;;3.53;68.50
40502;BME280;29631;49.168;9.848;2023-02-08T05:05:04;98526.25;;;3.57;68.57
40502;BME280;29631;49.168;9.848;2023-02-08T05:07:30;98528.88;;;3.57;67.52
40502;BME280;29631;49.168;9.848;2023-02-08T05:09:55;98514.16;;;3.56;67.57
40502;BME280;29631;49.168;9.848;2023-02-08T05:12:21;98514.38;;;3.53;67.74
40502;BME280;29631;49.168;9.848;2023-02-08T05:14:47;98526.47;;;3.54;67.42
40502;BME280;29631;49.168;9.848;2023-02-08T05:17:12;98517.13;;;3.52;67.98
40502;BME280;29631;49.168;9.848;2023-02-08T05:19:38;98517.59;;;3.46;68.28
40502;BME280;29631;49.168;9.848;2023-02-08T05:22:04;98529.44;;;3.50;67.61
40502;BME280;29631;49.168;9.848;2023-02-08T05:24:30;98511.75;;;3.42;67.92
40502;BME280;29631;49.168;9.848;2023-02-08T05:26:55;98504.69;;;3.44;68.45
40502;BME280;29631;49.168;9.848;2023-02-08T05:29:21;98521.72;;;3.48;68.55
40502;BME280;29631;49.168;9.848;2023-02-08T05:31:47;98523.28;;;3.51;68.13
40502;BME280;29631;49.168;9.848;2023-02-08T05:34:12;98478.31;;;3.25;67.91
40502;BME280;29631;49.168;9.848;2023-02-08T05:36:38;98515.66;;;3.48;67.77
40502;BME280;29631;49.168;9.848;2023-02-08T05:39:05;98518.41;;;3.46;68.24
40502;BME280;29631;49.168;9.848;2023-02-08T05:41:31;98523.28;;;3.51;67.17
40502;BME280;29631;49.168;9.848;2023-02-08T05:43:57;98505.09;;;3.38;67.42
40502;BME280;29631;49.168;9.848;2023-02-08T05:46:22;98520.31;;;3.44;68.19
40502;BME280;29631;49.168;9.848;2023-02-08T05:48:48;98510.09;;;3.41;67.97
40502;BME280;29631;49.168;9.848;2023-02-08T05:51:14;98510.31;;;3.38;68.27
40502;BME280;29631;49.168;9.848;2023-02-08T05:53:40;98515.53;;;3.38;68.00
40502;BME280;29631;49.168;9.848;2023-02-08T05:56:06;98520.88;;;3.37;67.81
40502;BME280;29631;49.168;9.848;2023-02-08T05:58:32;98507.47;;;3.30;67.91
40502;BME280;29631;49.168;9.848;2023-02-08T06:00:58;98520.88;;;3.37;67.40
40502;BME280;29631;49.168;9.848;2023-02-08T06:03:24;98518.50;;;3.34;67.52
40502;BME280;29631;49.168;9.848;2023-02-08T06:05:50;98530.00;;;3.31;68.28
40502;BME280;29631;49.168;9.848;2023-02-08T06:08:15;98531.41;;;3.35;68.70
40502;BME280;29631;49.168;9.848;2023-02-08T06:10:41;98519.56;;;3.31;67.30
40502;BME280;29631;49.168;9.848;2023-02-08T06:13:07;98541.84;;;3.35;68.12
40502;BME280;29631;49.168;9.848;2023-02-08T06:15:33;98522.16;;;3.31;68.14
40502;BME280;29631;49.168;9.848;2023-02-08T06:17:59;98533.53;;;3.30;68.04
40502;BME280;29631;49.168;9.848;2023-02-08T06:20:24;98530.41;;;3.25;67.95
40502;BME280;29631;49.168;9.848;2023-02-08T06:22:50;98520.25;;;3.22;67.61
40502;BME280;29631;49.168;9.848;2023-02-08T06:25:16;98532.09;;;3.26;67.31
40502;BME280;29631;49.168;9.848;2023-02-08T06:27:42;98520.44;;;3.19;67.19
40502;BME280;29631;49.168;9.848;2023-02-08T06:30:08;98532.94;;;3.27;67.18
40502;BME280;29631;49.168;9.848;2023-02-08T06:32:34;98528.78;;;3.24;67.32
40502;BME280;29631;49.168;9.848;2023-02-08T06:35:00;98531.38;;;3.24;67.12
40502;BME280;29631;49.168;9.848;2023-02-08T06:37:26;98533.03;;;3.25;67.77
40502;BME280;29631;49.168;9.848;2023-02-08T06:39:51;98519.50;;;3.20;67.54
40502;BME280;29631;49.168;9.848;2023-02-08T06:42:17;98520.44;;;3.19;67.03
40502;BME280;29631;49.168;9.848;2023-02-08T06:44:43;98512.16;;;3.14;67.68
40502;BME280;29631;49.168;9.848;2023-02-08T06:47:08;98532.31;;;3.23;67.60
40502;BME280;29631;49.168;9.848;2023-02-08T06:49:34;98540.63;;;3.28;68.04
40502;BME280;29631;49.168;9.848;2023-02-08T06:52:00;98534.94;;;3.23;67.30
40502;BME280;29631;49.168;9.848;2023-02-08T06:54:26;98528.78;;;3.24;68.03
40502;BME280;29631;49.168;9.848;2023-02-08T06:56:51;98500.38;;;2.98;67.38
40502;BME280;29631;49.168;9.848;2023-02-08T06:59:17;98528.38;;;3.18;67.00
40502;BME280;29631;49.168;9.848;2023-02-08T07:01:43;98528.38;;;3.18;67.99
40502;BME280;29631;49.168;9.848;2023-02-08T07:04:08;98536.34;;;3.27;66.99
40502;BME280;29631;49.168;9.848;2023-02-08T07:06:34;98540.63;;;3.28;67.73
40502;BME280;29631;49.168;9.848;2023-02-08T07:09:00;98537.28;;;3.26;67.21
40502;BME280;29631;49.168;9.848;2023-02-08T07:11:27;98526.88;;;3.26;67.25
40502;BME280;29631;49.168;9.848;2023-02-08T07:13:53;98536.84;;;3.32;67.61
40502;BME280;29631;49.168;9.848;2023-02-08T07:16:19;98539.34;;;3.34;67.58
40502;BME280;29631;49.168;9.848;2023-02-08T07:18:45;98534.75;;;3.37;67.71
40502;BME280;29631;49.168;9.848;2023-02-08T07:21:11;98504.81;;;3.19;66.78
40502;BME280;29631;49.168;9.848;2023-02-08T07:23:38;98541.72;;;3.48;67.14
40502;BME280;29631;49.168;9.848;2023-02-08T07:26:10;98538.78;;;3.52;67.84
40502;BME280;29631;49.168;9.848;2023-02-08T07:28:37;98547.31;;;3.54;67.25
40502;BME280;29631;49.168;9.848;2023-02-08T07:31:06;98553.75;;;3.61;68.20
40502;BME280;29631;49.168;9.848;2023-02-08T07:33:32;98557.91;;;3.63;67.02
40502;BME280;29631;49.168;9.848;2023-02-08T07:35:58;98530.50;;;3.58;67.24
40502;BME280;29631;49.168;9.848;2023-02-08T07:38:23;98550.34;;;3.71;67.64
40502;BME280;29631;49.168;9.848;2023-02-08T07:40:49;98540.50;;;3.75;66.89
40502;BME280;29631;49.168;9.848;2023-02-08T07:43:15;98503.34;;;3.50;67.43
40502;BME280;29631;49.168;9.848;2023-02-08T07:45:40;98537.19;;;3.84;67.45
40502;BME280;29631;49.168;9.848;2023-02-08T07:48:06;98539.56;;;3.87;66.47
40502;BME280;29631;49.168;9.848;2023-02-08T07:50:32;98536.22;;;3.85;67.67
40502;BME280;29631;49.168;9.848;2023-02-08T07:52:58;98522.72;;;3.80;68.01
40502;BME280;29631;49.168;9.848;2023-02-08T07:55:24;98534.94;;;3.79;67.50
40502;BME280;29631;49.168;9.848;2023-02-08T07:57:49;98537.31;;;3.82;67.20
40502;BME280;29631;49.168;9.848;2023-02-08T08:00:17;98550.13;;;3.85;67.30
40502;BME280;29631;49.168;9.848;2023-02-08T08:02:43;98534.94;;;3.90;67.77
40502;BME280;29631;49.168;9.848;2023-02-08T08:05:09;98530.81;;;3.88;67.22
40502;BME280;29631;49.168;9.848;2023-02-08T08:07:36;98542.41;;;3.95;67.08
40502;BME280;29631;49.168;9.848;2023-02-08T08:10:02;98530.06;;;3.97;67.42
40502;BME280;29631;49.168;9.848;2023-02-08T08:12:28;98525.09;;;3.94;67.36
40502;BME280;29631;49.168;9.848;2023-02-08T08:14:54;98523.09;;;3.97;67.58
40502;BME280;29631;49.168;9.848;2023-02-08T08:17:20;98518.00;;;3.96;67.41
40502;BME280;29631;49.168;9.848;2023-02-08T08:19:45;98542.06;;;4.10;68.16
40502;BME280;29631;49.168;9.848;2023-02-08T08:22:11;98530.31;;;4.16;67.61
40502;BME280;29631;49.168;9.848;2023-02-08T08:24:37;98522.88;;;4.11;67.67
40502;BME280;29631;49.168;9.848;2023-02-08T08:27:05;98530.31;;;4.16;67.83
40502;BME280;29631;49.168;9.848;2023-02-08T08:29:32;98539.56;;;4.30;68.15
40502;BME280;29631;49.168;9.848;2023-02-08T08:31:58;98547.38;;;4.41;67.60
40502;BME280;29631;49.168;9.848;2023-02-08T08:34:24;98541.44;;;4.50;67.44
40502;BME280;29631;49.168;9.848;2023-02-08T08:36:58;98538.31;;;4.67;68.01
40502;BME280;29631;49.168;9.848;2023-02-08T08:39:25;98540.38;;;5.47;66.95
40502;BME280;29631;49.168;9.848;2023-02-08T08:41:59;98543.50;;;6.71;65.34
40502;BME280;29631;49.168;9.848;2023-02-08T08:44:25;98531.22;;;7.85;63.95
40502;BME280;29631;49.168;9.848;2023-02-08T08:46:57;98534.41;;;8.61;62.35
40502;BME280;29631;49.168;9.848;2023-02-08T08:49:24;98541.22;;;8.80;61.69
40502;BME280;29631;49.168;9.848;2023-02-08T08:51:50;98523.13;;;8.95;61.51
40502;BME280;29631;49.168;9.848;2023-02-08T08:54:17;98540.28;;;9.51;61.54
40502;BME280;29631;49.168;9.848;2023-02-08T08:56:43;98531.53;;;10.11;60.70
40502;BME280;29631;49.168;9.848;2023-02-08T08:59:09;98530.41;;;10.46;60.32
40502;BME280;29631;49.168;9.848;2023-02-08T09:01:35;98534.34;;;10.42;60.21
40502;BME280;29631;49.168;9.848;2023-02-08T09:04:01;98516.84;;;10.33;60.81
40502;BME280;29631;49.168;9.848;2023-02-08T09:06:27;98530.56;;;10.45;60.79
40502;BME280;29631;49.168;9.848;2023-02-08T09:08:52;98534.63;;;10.31;61.88
40502;BME280;29631;49.168;9.848;2023-02-08T09:11:18;98521.00;;;10.11;61.34
40502;BME280;29631;49.168;9.848;2023-02-08T09:13:44;98522.09;;;9.83;62.52
40502;BME280;29631;49.168;9.848;2023-02-08T09:16:15;98501.94;;;9.31;62.50
40502;BME280;29631;49.168;9.848;2023-02-08T09:18:41;98527.75;;;9.10;63.57
40502;BME280;29631;49.168;9.848;2023-02-08T09:21:19;98527.09;;;8.81;63.90
40502;BME280;29631;49.168;9.848;2023-02-08T09:23:46;98518.09;;;8.57;64.93
40502;BME280;29631;49.168;9.848;2023-02-08T09:26:15;98522.34;;;8.41;65.02
40502;BME280;29631;49.168;9.848;2023-02-08T09:28:41;98525.69;;;8.33;65.51
40502;BME280;29631;49.168;9.848;2023-02-08T09:31:24;98516.81;;;8.44;65.19
40502;BME280;29631;49.168;9.848;2023-02-08T09:33:53;98511.06;;;8.58;65.77
40502;BME280;29631;49.168;9.848;2023-02-08T09:36:20;98515.38;;;8.93;65.70
40502;BME280;29631;49.168;9.848;2023-02-08T09:38:48;98524.28;;;9.62;63.85
40502;BME280;29631;49.168;9.848;2023-02-08T09:50:32;98539.84;;;10.57;62.07
40502;BME280;29631;49.168;9.848;2023-02-08T09:53:40;98541.13;;;10.45;62.74
40502;BME280;29631;49.168;9.848;2023-02-08T09:56:19;98544.97;;;10.25;62.83
40502;BME280;29631;49.168;9.848;2023-02-08T09:58:51;98530.22;;;10.07;63.15
40502;BME280;29631;49.168;9.848;2023-02-08T10:01:30;98517.38;;;10.12;62.83
40502;BME280;29631;49.168;9.848;2023-02-08T10:06:47;98519.00;;;10.79;61.63
40502;BME280;29631;49.168;9.848;2023-02-08T10:09:14;98528.28;;;10.91;61.97
40502;BME280;29631;49.168;9.848;2023-02-08T10:12:15;98529.78;;;11.01;61.74
40502;BME280;29631;49.168;9.848;2023-02-08T10:26:40;98518.72;;;12.33;60.96
40502;BME280;29631;49.168;9.848;2023-02-08T10:34:58;98512.19;;;12.98;60.13
40502;BME280;29631;49.168;9.848;2023-02-08T10:37:32;98505.28;;;12.97;60.68
40502;BME280;29631;49.168;9.848;2023-02-08T10:51:33;98505.16;;;13.12;61.22
40502;BME280;29631;49.168;9.848;2023-02-08T10:53:59;98500.66;;;12.91;61.50
40502;BME280;29631;49.168;9.848;2023-02-08T10:56:55;98503.88;;;12.70;61.16
40502;BME280;29631;49.168;9.848;2023-02-08T11:02:26;98478.41;;;12.39;61.24
40502;BME280;29631;49.168;9.848;2023-02-08T11:05:07;98481.06;;;12.31;61.87
40502;BME280;29631;49.168;9.848;2023-02-08T11:07:34;98484.41;;;12.17;62.44
40502;BME280;29631;49.168;9.848;2023-02-08T11:13:00;98476.75;;;11.76;62.66
40502;BME280;29631;49.168;9.848;2023-02-08T11:15:45;98450.00;;;11.39;62.03
40502;BME280;29631;49.168;9.848;2023-02-08T11:18:32;98448.50;;;11.21;62.33
40502;BME280;29631;49.168;9.848;2023-02-08T11:21:01;98458.56;;;11.09;63.19
40502;BME280;29631;49.168;9.848;2023-02-08T11:23:49;98449.44;;;10.80;62.17
40502;BME280;29631;49.168;9.848;2023-02-08T11:29:14;98443.75;;;10.43;63.55
40502;BME280;29631;49.168;9.848;2023-02-08T11:32:01;98433.78;;;10.29;63.09
40502;BME280;29631;49.168;9.848;2023-02-08T11:34:38;98424.88;;;10.22;63.19
40502;BME280;29631;49.168;9.848;2023-02-08T11:37:18;98421.25;;;10.23;63.96
40502;BME280;29631;49.168;9.848;2023-02-08T11:39:54;98414.47;;;10.13;63.81
40502;BME280;29631;49.168;9.848;2023-02-08T11:42:33;98435.28;;;10.32;63.47
40502;BME280;29631;49.168;9.848;2023-02-08T11:45:00;98425.75;;;10.39;64.37
40502;BME280;29631;49.168;9.848;2023-02-08T11:47:33;98419.66;;;10.38;63.46
40502;BME280;29631;49.168;9.848;2023-02-08T11:50:06;98415.72;;;10.42;64.24
40502;BME280;29631;49.168;9.848;2023-02-08T11:52:37;98405.97;;;10.43;63.99
40502;BME280;29631;49.168;9.848;2023-02-08T11:58:13;98407.84;;;10.50;64.31
40502;BME280;29631;49.168;9.848;2023-02-08T12:01:04;98417.41;;;10.59;63.87
40502;BME280;29631;49.168;9.848;2023-02-08T12:03:37;98411.47;;;10.57;64.06
40502;BME280;29631;49.168;9.848;2023-02-08T12:11:50;98418.41;;;10.66;64.57
40502;BME280;29631;49.168;9.848;2023-02-08T12:14:45;98408.84;;;10.73;63.84
40502;BME280;29631;49.168;9.848;2023-02-08T12:29:43;98394.22;;;10.86;64.35
40502;BME280;29631;49.168;9.848;2023-02-08T12:32:40;98391.41;;;10.88;64.33
40502;BME280;29631;49.168;9.848;2023-02-08T12:35:54;98370.97;;;10.90;64.92
40502;BME280;29631;49.168;9.848;2023-02-08T12:51:11;98346.84;;;11.25;64.25
40502;BME280;29631;49.168;9.848;2023-02-08T12:53:48;98354.09;;;11.39;64.27
40502;BME280;29631;49.168;9.848;2023-02-08T12:56:21;98346.50;;;11.44;64.69
40502;BME280;29631;49.168;9.848;2023-02-08T12:58:54;98337.88;;;11.50;64.86
40502;BME280;29631;49.168;9.848;2023-02-08T13:01:39;98330.34;;;11.55;64.87
40502;BME280;29631;49.168;9.848;2023-02-08T13:04:40;98320.41;;;11.57;63.95
40502;BME280;29631;49.168;9.848;2023-02-08T13:07:22;98313.31;;;11.65;64.32
40502;BME280;29631;49.168;9.848;2023-02-08T13:10:19;98322.34;;;11.70;64.62
40502;BME280;29631;49.168;9.848;2023-02-08T13:12:57;98324.81;;;11.72;64.24
40502;BME280;29631;49.168;9.848;2023-02-08T13:15:29;98325.97;;;11.77;64.00
40502;BME280;29631;49.168;9.848;2023-02-08T13:18:02;98323.00;;;11.80;63.89
40502;BME280;29631;49.168;9.848;2023-02-08T13:20:48;98323.59;;;11.90;64.25
40502;BME280;29631;49.168;9.848;2023-02-08T13:23:36;98304.91;;;11.92;64.05
40502;BME280;29631;49.168;9.848;2023-02-08T13:26:18;98326.88;;;12.00;64.50
40502;BME280;29631;49.168;9.848;2023-02-08T13:28:51;98320.22;;;12.04;64.47
40502;BME280;29631;49.168;9.848;2023-02-08T13:31:26;98314.25;;;12.10;64.26
40502;BME280;29631;49.168;9.848;2023-02-08T13:34:13;98314.56;;;12.07;63.77
40502;BME280;29631;49.168;9.848;2023-02-08T13:36:54;98316.09;;;12.10;64.05
40502;BME280;29631;49.168;9.848;2023-02-08T13:39:40;98317.00;;;12.47;63.42
40502;BME280;29631;49.168;9.848;2023-02-08T13:42:22;98312.84;;;13.11;62.15
40502;BME280;29631;49.168;9.848;2023-02-08T13:44:54;98310.09;;;13.71;61.73
40502;BME280;29631;49.168;9.848;2023-02-08T13:47:28;98298.81;;;14.12;60.69
40502;BME280;29631;49.168;9.848;2023-02-08T13:50:03;98292.56;;;14.54;60.28
40502;BME280;29631;49.168;9.848;2023-02-08T14:00:35;98287.31;;;15.30;58.55
40502;BME280;29631;49.168;9.848;2023-02-08T14:05:53;98288.03;;;15.45;58.77
40502;BME280;29631;49.168;9.848;2023-02-08T14:11:10;98305.78;;;15.38;59.12
40502;BME280;29631;49.168;9.848;2023-02-08T14:14:02;98303.13;;;15.17;58.98
40502;BME280;29631;49.168;9.848;2023-02-08T14:16:39;98303.22;;;15.24;59.47
40502;BME280;29631;49.168;9.848;2023-02-08T14:19:22;98306.50;;;15.26;59.71
40502;BME280;29631;49.168;9.848;2023-02-08T14:22:02;98314.97;;;15.15;59.82
40502;BME280;29631;49.168;9.848;2023-02-08T14:24:38;98301.38;;;15.03;60.03
40502;BME280;29631;49.168;9.848;2023-02-08T14:27:41;98296.78;;;14.91;60.12
40502;BME280;29631;49.168;9.848;2023-02-08T14:30:32;98286.72;;;14.86;60.53
40502;BME280;29631;49.168;9.848;2023-02-08T14:35:30;98289.22;;;14.67;60.45
40502;BME280;29631;49.168;9.848;2023-02-08T14:45:47;98290.03;;;14.26;60.51
40502;BME280;29631;49.168;9.848;2023-02-08T14:48:27;98280.13;;;14.20;60.16
40502;BME280;29631;49.168;9.848;2023-02-08T14:53:52;98251.91;;;13.98;60.57
40502;BME280;29631;49.168;9.848;2023-02-08T14:56:35;98255.06;;;13.87;60.16
40502;BME280;29631;49.168;9.848;2023-02-08T14:59:14;98253.97;;;13.67;60.89
40502;BME280;29631;49.168;9.848;2023-02-08T15:02:00;98249.25;;;13.48;61.07
40502;BME280;29631;49.168;9.848;2023-02-08T15:04:27;98256.91;;;13.29;60.95
40502;BME280;29631;49.168;9.848;2023-02-08T15:07:33;98259.91;;;13.11;60.39
40502;BME280;29631;49.168;9.848;2023-02-08T15:10:09;98262.94;;;12.86;60.32
40502;BME280;29631;49.168;9.848;2023-02-08T15:12:38;98257.84;;;12.62;61.35
40502;BME280;29631;49.168;9.848;2023-02-08T15:15:06;98256.38;;;12.37;60.96
40502;BME280;29631;49.168;9.848;2023-02-08T15:17:49;98274.31;;;12.28;61.10
40502;BME280;29631;49.168;9.848;2023-02-08T15:20:23;98256.44;;;12.07;60.49
40502;BME280;29631;49.168;9.848;2023-02-08T15:23:00;98265.13;;;11.93;60.58
40502;BME280;29631;49.168;9.848;2023-02-08T15:25:34;98253.63;;;11.78;60.16
40502;BME280;29631;49.168;9.848;2023-02-08T15:28:16;98257.28;;;11.69;61.12
40502;BME280;29631;49.168;9.848;2023-02-08T15:30:44;98265.59;;;11.58;61.40
40502;BME280;29631;49.168;9.848;2023-02-08T15:33:15;98259.53;;;11.42;60.72
40502;BME280;29631;49.168;9.848;2023-02-08T15:35:59;98253.97;;;11.29;60.37
40502;BME280;29631;49.168;9.848;2023-02-08T15:38:26;98250.53;;;11.21;61.28
40502;BME280;29631;49.168;9.848;2023-02-08T15:41:12;98255.50;;;11.08;61.07
40502;BME280;29631;49.168;9.848;2023-02-08T15:43:40;98255.53;;;11.00;60.90